Terminal Aerodrome Forecast
Issued by NWS

Current Version | Previous Version | Text Only | Print | Product List | Glossary On
Versions: 1 2 3 4 5 6 7 8 9 10 11 12 13 14 15 16 17 18 19 20 21
000
FTUS41 KPBZ 040500
TAFZZV
TAF
KZZV 040539Z 0406/0506 29011KT P6SM -RA SCT011 BKN020 OVC070
     FM041300 28005KT 2SM -SN OVC007
     FM041700 29005KT 5SM BR OVC010
     FM042200 32008KT 2SM -SN BR OVC007=

USA.gov is the U.S. government's official web portal to all federal, state and local government web resources and services.